Terminal Aerodrome Forecast
Issued by NWS

Home | Current Version | Previous Version | Text Only | Print | Product List | Glossary On
Versions: 1 2 3 4 5 6 7 8 9 10 11 12 13 14 15
678
FTAK31 PAJN 211741
TAFAKT
TAF
PAKT 211741Z 2118/2218 11007KT P6SM VCSH BKN035
     FM220600 11005KT P6SM -RA OVC025
      AMD LTD TO CLD VIS AND WIND 2206/2215=

USA.gov is the U.S. government's official web portal to all federal, state and local government web resources and services.